ココス (キーリング) 諸島 の空港の天気 - METARとTAF

ココス島国際空港 ( YPCC / CCK ) - ココス諸島 ココス (キーリング) 諸島
飛行場実況気象(Metar)
観測時間10/29 00:00 CCT (10/28 17:30 UTC)
風向・風速東南東 7m/s
視程10km以上
天気現象
全天の4割程度の雲 雲底高度 670m
全天の4割程度の雲 雲底高度 850m
気温26℃
湿度79%
気圧1012hPa
METARYPCC 281730Z AUTO 12014KT 9999 // SCT022 SCT028 26/22 Q1012
過去の天気等 Google飛行場航空写真 Wunderground天気予報

過去48時間のMETAR

飛行場予報(TAF)
発表時間: 10/28 23:35 CCT (10/28 17:05 UTC)
予報対象時間: 29日0時 CCT ~ 30日0時 CCT
風向・風速東南東 7m/s
視程10km以上
全天の4割程度の雲 雲底高度 760m
TAF YPCC 281705Z 2818/2918 12014KT 9999 SCT025